createdAt,value
2023-03-10T00:00:27.784Z,26.52
2023-03-10T00:01:27.752Z,26.52
2023-03-10T00:02:27.697Z,26.54
2023-03-10T00:03:27.640Z,26.52
2023-03-10T00:04:27.662Z,26.54
2023-03-10T00:05:27.632Z,26.52
2023-03-10T00:06:27.557Z,26.52
2023-03-10T00:54:56.915Z,26.55
2023-03-10T00:55:57.848Z,26.52
2023-03-10T00:56:57.811Z,26.55
2023-03-10T00:57:57.780Z,26.55
2023-03-10T00:58:57.749Z,26.56
2023-03-10T00:59:57.700Z,26.56
2023-03-10T01:00:57.678Z,26.55
2023-03-10T01:01:57.725Z,26.55
2023-03-10T01:02:57.597Z,26.55
2023-03-10T01:03:57.628Z,26.56
2023-03-10T01:04:57.527Z,26.55
2023-03-10T01:05:57.482Z,26.55
2023-03-10T01:06:57.439Z,26.52
2023-03-10T01:07:57.400Z,26.54
2023-03-10T01:08:57.390Z,26.52
2023-03-10T01:09:57.347Z,26.52
2023-03-10T01:10:57.301Z,26.54
2023-03-10T01:11:57.224Z,26.54
2023-03-10T01:12:57.200Z,26.54
2023-03-10T01:13:57.156Z,26.52
2023-03-10T01:14:57.108Z,26.51
2023-03-10T01:15:57.063Z,26.54
2023-03-10T01:16:57.005Z,26.51
2023-03-10T01:17:56.958Z,26.52
2023-03-10T01:18:57.551Z,26.54
2023-03-10T01:19:56.874Z,26.51
2023-03-10T01:20:56.846Z,26.51
2023-03-10T01:21:56.796Z,26.54
2023-03-10T01:22:56.756Z,26.51
2023-03-10T01:23:56.755Z,26.49
2023-03-10T01:24:56.674Z,26.51
2023-03-10T01:25:56.631Z,26.51
2023-03-10T01:26:56.616Z,26.49
2023-03-10T01:27:56.551Z,26.48
2023-03-10T01:28:56.536Z,26.49
2023-03-10T01:29:56.469Z,26.48
2023-03-10T01:30:56.497Z,26.49
2023-03-10T01:31:56.406Z,26.48
2023-03-10T01:32:56.343Z,26.49
2023-03-10T01:33:56.297Z,26.49
2023-03-10T01:34:56.263Z,26.49
2023-03-10T01:35:56.317Z,26.48
2023-03-10T01:36:56.184Z,26.49
2023-03-10T01:37:56.145Z,26.48
2023-03-10T01:38:57.021Z,26.48
2023-03-10T01:39:56.054Z,26.49
2023-03-10T01:40:56.006Z,26.48
2023-03-10T01:41:55.969Z,26.48
2023-03-10T01:42:55.942Z,26.49
2023-03-10T01:43:55.874Z,26.48
2023-03-10T01:44:55.825Z,26.51
2023-03-10T01:45:55.786Z,26.48
2023-03-10T01:46:55.811Z,26.48
2023-03-10T01:47:55.688Z,26.48
2023-03-10T01:48:55.645Z,26.48
2023-03-10T01:49:55.617Z,26.49
2023-03-10T01:50:55.567Z,26.48
2023-03-10T01:51:55.526Z,26.49
2023-03-10T01:52:55.494Z,26.49
2023-03-10T01:53:55.447Z,26.49
2023-03-10T01:54:55.403Z,26.48
2023-03-10T01:55:55.358Z,26.48
2023-03-10T01:56:55.318Z,26.51
2023-03-10T01:57:55.273Z,26.49
2023-03-10T01:58:56.027Z,26.51
2023-03-10T01:59:55.192Z,26.51
2023-03-10T02:00:55.173Z,26.48
2023-03-10T02:01:55.220Z,26.48
2023-03-10T02:02:55.056Z,26.46
2023-03-10T02:03:55.030Z,26.46
2023-03-10T02:04:54.985Z,26.46
2023-03-10T02:05:54.945Z,26.48
2023-03-10T02:06:55.513Z,26.48
2023-03-10T02:07:57.512Z,26.45
2023-03-10T02:08:54.832Z,26.45
2023-03-10T02:09:54.789Z,26.48
2023-03-10T02:10:54.750Z,26.49
2023-03-10T02:11:54.709Z,26.49
2023-03-10T02:12:55.520Z,26.46
2023-03-10T02:13:54.636Z,26.46
2023-03-10T02:14:54.634Z,26.46
2023-03-10T02:15:54.648Z,26.46
2023-03-10T02:16:54.523Z,26.45
2023-03-10T02:17:55.138Z,26.48
2023-03-10T02:18:54.448Z,26.48
2023-03-10T02:19:54.409Z,26.45
2023-03-10T02:20:54.379Z,26.48
2023-03-10T02:21:54.351Z,26.48
2023-03-10T02:22:54.308Z,26.46
2023-03-10T02:24:00.837Z,26.48
2023-03-10T02:24:54.227Z,26.48
2023-03-10T02:25:54.185Z,26.46
2023-03-10T02:26:54.144Z,26.48
2023-03-10T02:27:54.128Z,26.45
2023-03-10T02:28:54.078Z,26.46
2023-03-10T02:29:59.135Z,26.49
2023-03-10T02:30:54.026Z,26.46
2023-03-10T02:31:53.963Z,26.46
2023-03-10T02:32:54.051Z,26.46
2023-03-10T02:33:54.526Z,26.46
2023-03-10T02:34:53.860Z,26.46
2023-03-10T02:35:53.870Z,26.45
2023-03-10T02:36:53.793Z,26.48
2023-03-10T02:37:53.787Z,26.46
2023-03-10T02:38:53.717Z,26.46
2023-03-10T02:39:53.671Z,26.46
2023-03-10T02:40:53.636Z,26.46
2023-03-10T02:41:53.600Z,26.46
2023-03-10T02:42:53.558Z,26.45
2023-03-10T02:43:53.521Z,26.46
2023-03-10T02:44:53.485Z,26.46
2023-03-10T02:45:53.520Z,26.48
2023-03-10T02:46:53.431Z,26.48
2023-03-10T02:47:53.346Z,26.48
2023-03-10T02:48:53.313Z,26.49
2023-03-10T02:49:53.287Z,26.46
2023-03-10T02:50:54.023Z,26.49
2023-03-10T02:51:53.182Z,26.46
2023-03-10T02:52:53.144Z,26.46
2023-03-10T02:53:53.103Z,26.46
2023-03-10T02:54:53.061Z,26.46
2023-03-10T02:55:53.007Z,26.48
2023-03-10T02:56:52.969Z,26.46
2023-03-10T02:57:52.941Z,26.49
2023-03-10T02:58:52.884Z,26.48
2023-03-10T02:59:52.870Z,26.48
2023-03-10T03:00:52.885Z,26.49
2023-03-10T03:01:52.761Z,26.48
2023-03-10T03:02:52.734Z,26.46
2023-03-10T03:03:52.746Z,26.48
2023-03-10T03:04:52.622Z,26.45
2023-03-10T03:05:52.586Z,26.48
2023-03-10T03:06:52.541Z,26.49
2023-03-10T03:07:52.492Z,26.46
2023-03-10T03:08:52.460Z,26.45
2023-03-10T03:09:52.408Z,26.46
2023-03-10T03:10:52.376Z,26.46
2023-03-10T03:11:52.326Z,26.48
2023-03-10T03:12:52.285Z,26.45
2023-03-10T03:13:55.032Z,26.46
2023-03-10T03:14:52.196Z,26.48
2023-03-10T03:15:52.168Z,26.46
2023-03-10T03:16:52.173Z,26.48
2023-03-10T03:17:52.060Z,26.45
2023-03-10T03:18:52.051Z,26.48
2023-03-10T03:19:51.989Z,26.45
2023-03-10T03:20:51.941Z,26.46
2023-03-10T03:21:51.901Z,26.46
2023-03-10T03:22:51.860Z,26.46
2023-03-10T03:23:51.812Z,26.46
2023-03-10T03:24:51.781Z,26.48
2023-03-10T03:25:51.743Z,26.46
2023-03-10T03:26:51.685Z,26.46
2023-03-10T03:27:51.639Z,26.45
2023-03-10T03:28:51.597Z,26.46
2023-03-10T03:29:51.544Z,26.48
2023-03-10T03:30:51.495Z,26.48
2023-03-10T03:31:51.481Z,26.45
2023-03-10T03:32:51.518Z,26.45
2023-03-10T03:33:51.368Z,26.46
2023-03-10T03:34:51.322Z,26.46
2023-03-10T03:35:51.275Z,26.45
2023-03-10T03:36:51.211Z,26.45
2023-03-10T03:37:51.181Z,26.48
2023-03-10T03:38:51.126Z,26.44
2023-03-10T03:39:51.130Z,26.46
2023-03-10T03:40:51.026Z,26.45
2023-03-10T03:41:50.982Z,26.46
2023-03-10T03:42:50.935Z,26.45
2023-03-10T03:43:50.887Z,26.46
2023-03-10T03:44:50.832Z,26.45
2023-03-10T03:45:50.825Z,26.45
2023-03-10T03:46:50.767Z,26.45
2023-03-10T03:47:50.711Z,26.45
2023-03-10T03:48:50.651Z,26.44
2023-03-10T03:49:50.605Z,26.46
2023-03-10T03:50:50.585Z,26.44
2023-03-10T03:51:50.503Z,26.45
2023-03-10T03:52:50.458Z,26.45
2023-03-10T03:53:50.418Z,26.45
2023-03-10T03:54:50.388Z,26.46
2023-03-10T03:55:50.325Z,26.48
2023-03-10T03:56:50.298Z,26.45
2023-03-10T03:57:50.236Z,26.48
2023-03-10T03:58:50.195Z,26.46
2023-03-10T03:59:50.142Z,26.45
2023-03-10T04:00:51.751Z,26.45
2023-03-10T04:01:50.054Z,26.45
2023-03-10T04:02:50.064Z,26.45
2023-03-10T04:03:50.037Z,26.46
2023-03-10T04:04:49.916Z,26.42
2023-03-10T04:05:49.868Z,26.46
2023-03-10T04:06:49.872Z,26.44
2023-03-10T04:07:49.835Z,26.44
2023-03-10T04:08:49.716Z,26.46
2023-03-10T04:09:49.664Z,26.45
2023-03-10T04:10:49.620Z,26.45
2023-03-10T04:11:49.591Z,26.44
2023-03-10T04:12:49.529Z,26.46
2023-03-10T04:13:49.474Z,26.44
2023-03-10T04:14:49.559Z,26.46
2023-03-10T04:15:49.506Z,26.45
2023-03-10T04:16:49.348Z,26.44
2023-03-10T04:17:49.294Z,26.44
2023-03-10T04:18:49.245Z,26.45
2023-03-10T04:20:04.672Z,26.45
2023-03-10T04:20:49.160Z,26.45
2023-03-10T04:21:49.121Z,26.42
2023-03-10T04:22:49.098Z,26.45
2023-03-10T04:23:49.028Z,26.42
2023-03-10T04:24:48.985Z,26.45
2023-03-10T04:25:48.945Z,26.44
2023-03-10T04:26:48.901Z,26.44
2023-03-10T04:27:48.857Z,26.44
2023-03-10T04:28:48.809Z,26.45
2023-03-10T04:29:48.763Z,26.45
2023-03-10T04:30:48.784Z,26.44
2023-03-10T04:32:04.064Z,26.45
2023-03-10T04:32:49.326Z,26.45
2023-03-10T04:33:48.590Z,26.42
2023-03-10T04:34:48.555Z,26.42
2023-03-10T04:35:48.529Z,26.46
2023-03-10T04:36:48.450Z,26.44
2023-03-10T04:37:48.403Z,26.46
2023-03-10T04:38:48.398Z,26.45
2023-03-10T04:39:48.326Z,26.45
2023-03-10T04:40:48.269Z,26.45
2023-03-10T04:41:48.232Z,26.45
2023-03-10T04:42:48.184Z,26.44
2023-03-10T04:43:48.229Z,26.42
2023-03-10T04:44:49.067Z,26.45
2023-03-10T04:45:48.132Z,26.45
2023-03-10T04:46:48.013Z,26.42
2023-03-10T04:47:47.966Z,26.42
2023-03-10T04:48:47.982Z,26.42
2023-03-10T04:49:47.887Z,26.41
2023-03-10T04:50:47.839Z,26.44
2023-03-10T04:51:47.795Z,26.44
2023-03-10T04:52:47.789Z,26.44
2023-03-10T04:53:47.712Z,26.42
2023-03-10T04:54:47.695Z,26.42
2023-03-10T04:55:47.634Z,26.42
2023-03-10T04:56:47.617Z,26.44
2023-03-10T04:57:47.549Z,26.44
2023-03-10T04:58:47.506Z,26.42
2023-03-10T04:59:47.502Z,26.41
2023-03-10T05:01:01.945Z,26.44
2023-03-10T05:01:47.478Z,26.42
2023-03-10T05:02:47.330Z,26.42
2023-03-10T05:03:47.284Z,26.42
2023-03-10T05:04:47.368Z,26.44
2023-03-10T05:05:47.197Z,26.44
2023-03-10T05:06:47.162Z,26.42
2023-03-10T05:07:47.108Z,26.44
2023-03-10T05:08:47.077Z,26.42
2023-03-10T05:09:47.017Z,26.44
2023-03-10T05:10:46.999Z,26.42
2023-03-10T05:11:46.964Z,26.44
2023-03-10T05:12:46.889Z,26.44
2023-03-10T05:13:47.576Z,26.41
2023-03-10T05:14:46.841Z,26.42
2023-03-10T05:15:46.806Z,26.42
2023-03-10T05:16:46.739Z,26.42
2023-03-10T05:17:49.633Z,26.41
2023-03-10T05:18:46.648Z,26.42
2023-03-10T05:19:46.611Z,26.42
2023-03-10T05:20:46.563Z,26.42
2023-03-10T05:21:46.522Z,26.44
2023-03-10T05:22:46.497Z,26.42
2023-03-10T05:23:46.487Z,26.42
2023-03-10T05:24:46.412Z,26.42
2023-03-10T05:25:46.372Z,26.42
2023-03-10T05:26:46.349Z,26.42
2023-03-10T05:27:46.307Z,26.41
2023-03-10T05:28:46.263Z,26.42
2023-03-10T05:29:46.203Z,26.42
2023-03-10T05:30:46.162Z,26.44
2023-03-10T05:31:46.194Z,26.45
2023-03-10T05:32:46.173Z,26.42
2023-03-10T05:33:46.046Z,26.42
2023-03-10T05:34:46.012Z,26.41
2023-03-10T05:35:46.060Z,26.42
2023-03-10T05:36:45.941Z,26.42
2023-03-10T05:37:45.977Z,26.41
2023-03-10T05:38:45.896Z,26.44
2023-03-10T05:39:45.841Z,26.41
2023-03-10T05:40:45.790Z,26.42
2023-03-10T05:41:45.758Z,26.42
2023-03-10T05:42:45.753Z,26.42
2023-03-10T05:43:45.693Z,26.42
2023-03-10T05:44:45.663Z,26.42
2023-03-10T05:45:45.624Z,26.45
2023-03-10T05:46:45.637Z,26.39
2023-03-10T05:47:45.578Z,26.42
2023-03-10T05:48:45.509Z,26.41
2023-03-10T05:49:45.486Z,26.42
2023-03-10T05:50:45.435Z,26.42
2023-03-10T05:51:45.394Z,26.41
2023-03-10T05:52:45.363Z,26.41
2023-03-10T05:53:45.315Z,26.42
2023-03-10T05:54:45.281Z,26.41
2023-03-10T05:55:45.246Z,26.42
2023-03-10T05:56:45.202Z,26.42
2023-03-10T05:57:45.168Z,26.42
2023-03-10T05:58:45.158Z,26.41
2023-03-10T05:59:45.095Z,26.41
2023-03-10T06:00:45.052Z,26.44
2023-03-10T06:01:45.028Z,26.44
2023-03-10T06:02:45.010Z,26.41
2023-03-10T06:03:45.174Z,26.44
2023-03-10T06:04:45.104Z,26.44
2023-03-10T06:05:44.850Z,26.42
2023-03-10T06:06:44.847Z,26.44
2023-03-10T06:07:44.768Z,26.41
2023-03-10T06:08:44.731Z,26.39
2023-03-10T06:09:44.698Z,26.41
2023-03-10T06:10:44.652Z,26.41
2023-03-10T06:11:44.685Z,26.39
2023-03-10T06:12:44.591Z,26.41
2023-03-10T06:13:44.541Z,26.41
2023-03-10T06:14:44.520Z,26.42
2023-03-10T06:15:44.456Z,26.42
2023-03-10T06:16:44.564Z,26.41
2023-03-10T06:17:44.392Z,26.42
2023-03-10T06:18:44.336Z,26.44
2023-03-10T06:19:44.307Z,26.42
2023-03-10T06:20:44.265Z,26.42
2023-03-10T06:21:44.229Z,26.44
2023-03-10T06:22:44.205Z,26.38
2023-03-10T06:23:44.163Z,26.41
2023-03-10T06:24:44.123Z,26.41
2023-03-10T06:25:44.098Z,26.41
2023-03-10T06:26:44.075Z,26.42
2023-03-10T06:27:44.013Z,26.44
2023-03-10T06:28:43.984Z,26.46
2023-03-10T06:29:43.947Z,26.45
2023-03-10T06:30:44.133Z,26.48
2023-03-10T06:31:43.904Z,26.49
2023-03-10T06:32:44.684Z,26.49
2023-03-10T06:33:43.782Z,26.51
2023-03-10T06:34:43.747Z,26.46
2023-03-10T06:35:43.721Z,26.48
2023-03-10T06:36:43.661Z,26.48
2023-03-10T06:37:44.120Z,26.51
2023-03-10T06:38:43.578Z,26.52
2023-03-10T06:39:43.569Z,26.52
2023-03-10T06:40:43.613Z,26.52
2023-03-10T06:41:43.531Z,26.51
2023-03-10T06:42:43.620Z,26.55
2023-03-10T06:43:43.367Z,26.55
2023-03-10T06:44:43.339Z,26.55
2023-03-10T06:45:43.328Z,26.55
2023-03-10T06:46:43.670Z,26.54
2023-03-10T06:47:43.219Z,26.58
2023-03-10T06:48:43.194Z,26.59
2023-03-10T06:49:43.134Z,26.58
2023-03-10T06:50:43.588Z,26.56
2023-03-10T06:51:43.119Z,26.58
2023-03-10T06:52:43.052Z,26.60
2023-03-10T06:53:43.157Z,26.60
2023-03-10T06:54:43.142Z,26.51
2023-03-10T06:55:42.952Z,26.60
2023-03-10T06:56:43.125Z,26.68
2023-03-10T06:57:43.860Z,26.60
2023-03-10T06:58:42.825Z,26.66
2023-03-10T06:59:43.701Z,26.69
2023-03-10T07:00:42.736Z,26.73
2023-03-10T07:01:42.691Z,26.78
2023-03-10T07:02:42.679Z,26.80
2023-03-10T07:03:43.820Z,26.86
2023-03-10T07:04:42.670Z,26.86
2023-03-10T07:05:42.629Z,26.89
2023-03-10T07:06:42.516Z,26.90
2023-03-10T07:07:42.511Z,26.93
2023-03-10T07:08:45.630Z,26.97
2023-03-10T07:09:42.435Z,26.97
2023-03-10T07:10:42.635Z,27.00
2023-03-10T07:11:42.344Z,27.01
2023-03-10T07:12:42.305Z,27.04
2023-03-10T07:13:42.260Z,27.04
2023-03-10T07:14:42.216Z,27.08
2023-03-10T07:15:42.638Z,27.10
2023-03-10T07:16:42.243Z,27.10
2023-03-10T07:17:42.088Z,27.13
2023-03-10T07:18:42.068Z,27.15
2023-03-10T07:19:42.009Z,27.13
2023-03-10T07:20:41.977Z,27.17
2023-03-10T07:21:42.198Z,27.20
2023-03-10T07:22:41.926Z,27.21
2023-03-10T07:23:41.874Z,27.21
2023-03-10T07:24:41.812Z,27.23
2023-03-10T07:25:42.783Z,27.27
2023-03-10T07:26:41.734Z,27.25
2023-03-10T07:27:42.126Z,27.28
2023-03-10T07:28:41.631Z,27.30
2023-03-10T07:29:41.644Z,27.28
2023-03-10T07:30:41.601Z,27.30
2023-03-10T07:31:41.505Z,27.34
2023-03-10T07:32:41.545Z,27.33
2023-03-10T07:33:41.385Z,27.34
2023-03-10T07:34:41.385Z,27.37
2023-03-10T07:35:41.318Z,27.37
2023-03-10T07:36:41.670Z,27.41
2023-03-10T07:37:41.198Z,27.38
2023-03-10T07:38:41.196Z,27.38
2023-03-10T07:39:41.097Z,27.41
2023-03-10T07:40:41.657Z,27.41
2023-03-10T07:41:41.226Z,27.42
2023-03-10T07:42:40.950Z,27.44
2023-03-10T07:43:40.906Z,27.46
2023-03-10T07:44:43.757Z,27.46
2023-03-10T07:45:40.825Z,27.49
2023-03-10T07:46:41.264Z,27.49
2023-03-10T07:47:40.725Z,27.48
2023-03-10T07:48:41.056Z,27.48
2023-03-10T07:49:40.644Z,27.49
2023-03-10T07:50:40.625Z,27.53
2023-03-10T07:51:40.782Z,27.49
2023-03-10T07:52:40.498Z,27.52
2023-03-10T07:53:40.470Z,27.49
2023-03-10T07:54:40.416Z,27.51
2023-03-10T07:55:40.388Z,27.52
2023-03-10T07:56:43.892Z,27.58
2023-03-10T07:57:40.339Z,27.58
2023-03-10T07:58:40.756Z,27.56
2023-03-10T07:59:46.929Z,27.56
2023-03-10T08:00:40.539Z,27.56
2023-03-10T08:01:40.096Z,27.62
2023-03-10T08:02:40.831Z,27.62
2023-03-10T08:03:40.108Z,27.59
2023-03-10T08:04:40.920Z,27.60
2023-03-10T08:05:40.143Z,27.65
2023-03-10T08:06:40.215Z,27.63
2023-03-10T08:07:40.275Z,27.63
2023-03-10T08:08:39.769Z,27.66
2023-03-10T08:09:40.643Z,27.65
2023-03-10T08:10:39.976Z,27.65
2023-03-10T08:11:39.636Z,27.63
2023-03-10T08:12:39.581Z,27.65
2023-03-10T08:13:39.593Z,27.65
2023-03-10T08:14:42.723Z,27.66
2023-03-10T08:15:40.140Z,27.69
2023-03-10T08:16:39.412Z,27.70
2023-03-10T08:17:39.659Z,27.69
2023-03-10T08:18:39.303Z,27.70
2023-03-10T08:19:39.244Z,27.70
2023-03-10T08:20:39.190Z,27.72
2023-03-10T08:21:39.154Z,27.63
2023-03-10T08:22:39.205Z,27.65
2023-03-10T08:23:39.644Z,27.66
2023-03-10T08:24:39.391Z,27.60
2023-03-10T08:25:39.097Z,27.65
2023-03-10T08:26:38.906Z,27.65
2023-03-10T08:27:39.172Z,27.66
2023-03-10T08:28:39.132Z,27.72
2023-03-10T08:29:39.096Z,27.69
2023-03-10T08:30:52.490Z,27.69
2023-03-10T08:31:38.740Z,27.73
2023-03-10T08:32:38.794Z,27.73
2023-03-10T08:33:38.778Z,27.73
2023-03-10T08:34:38.782Z,27.73
2023-03-10T08:35:38.508Z,27.76
2023-03-10T08:36:39.073Z,27.69
2023-03-10T08:37:38.780Z,27.73
2023-03-10T08:38:38.596Z,27.72
2023-03-10T08:39:38.899Z,27.72
2023-03-10T08:40:38.256Z,27.76
2023-03-10T08:41:39.349Z,27.76
2023-03-10T08:42:38.222Z,27.79
2023-03-10T08:43:38.091Z,27.79
2023-03-10T08:44:38.027Z,27.79
2023-03-10T08:45:37.979Z,27.79
2023-03-10T08:46:38.040Z,27.80
2023-03-10T08:47:37.882Z,27.83
2023-03-10T08:48:38.242Z,27.86
2023-03-10T08:49:37.827Z,27.66
2023-03-10T08:50:37.737Z,27.68
2023-03-10T08:51:37.664Z,27.68
2023-03-10T08:52:37.616Z,27.72
2023-03-10T08:53:37.680Z,27.73
2023-03-10T08:54:37.570Z,27.76
2023-03-10T08:55:37.477Z,27.76
2023-03-10T08:56:37.708Z,27.79
2023-03-10T08:57:37.371Z,27.82
2023-03-10T08:58:37.323Z,27.82
2023-03-10T08:59:37.275Z,27.82
2023-03-10T09:00:37.814Z,27.86
2023-03-10T09:01:37.223Z,27.83
2023-03-10T09:02:38.133Z,27.86
2023-03-10T09:03:37.248Z,27.87
2023-03-10T09:04:37.169Z,27.92
2023-03-10T09:05:36.952Z,27.92
2023-03-10T09:06:37.236Z,27.92
2023-03-10T09:07:36.893Z,27.93
2023-03-10T09:08:36.795Z,27.82
2023-03-10T09:09:36.761Z,27.46
2023-03-10T09:10:36.732Z,27.08
2023-03-10T09:11:38.952Z,26.76
2023-03-10T09:12:39.133Z,26.46
2023-03-10T09:13:36.696Z,26.26
2023-03-10T09:14:36.520Z,26.37
2023-03-10T09:15:36.683Z,26.21
2023-03-10T09:16:36.497Z,26.21
2023-03-10T09:17:40.944Z,26.21
2023-03-10T09:18:36.715Z,25.89
2023-03-10T09:19:36.680Z,25.77
2023-03-10T09:20:36.532Z,25.83
2023-03-10T09:21:36.480Z,25.84
2023-03-10T09:22:36.696Z,25.86
2023-03-10T09:23:36.418Z,25.89
2023-03-10T09:24:36.705Z,25.92
2023-03-10T09:25:36.703Z,25.89
2023-03-10T09:26:36.778Z,25.87
2023-03-10T09:27:36.318Z,25.86
2023-03-10T09:28:36.298Z,25.84
2023-03-10T09:29:42.965Z,25.84
2023-03-10T09:30:37.294Z,25.82
2023-03-10T09:31:36.294Z,25.77
2023-03-10T09:32:36.322Z,25.72
2023-03-10T09:33:36.127Z,25.73
2023-03-10T09:34:36.290Z,25.75
2023-03-10T09:35:41.623Z,25.77
2023-03-10T09:36:36.390Z,25.79
2023-03-10T09:37:36.010Z,25.83
2023-03-10T09:38:36.044Z,25.84
2023-03-10T09:39:35.883Z,25.89
2023-03-10T09:40:35.850Z,25.93
2023-03-10T09:41:38.282Z,25.76
2023-03-10T09:42:38.264Z,25.87
2023-03-10T09:43:36.211Z,25.86
2023-03-10T09:44:35.675Z,25.89
2023-03-10T09:45:36.307Z,25.90
2023-03-10T09:46:35.627Z,25.94
2023-03-10T09:47:36.265Z,25.99
2023-03-10T09:48:35.562Z,26.03
2023-03-10T09:49:35.720Z,26.11
2023-03-10T09:50:35.489Z,26.16
2023-03-10T09:51:35.530Z,26.24
2023-03-10T09:52:35.394Z,26.27
2023-03-10T09:53:35.386Z,26.35
2023-03-10T09:54:35.328Z,26.38
2023-03-10T09:55:42.307Z,26.46
2023-03-10T09:56:35.242Z,26.52
2023-03-10T09:57:35.273Z,26.56
2023-03-10T09:58:35.170Z,26.63
2023-03-10T09:59:35.133Z,26.69
2023-03-10T10:00:35.241Z,26.71
2023-03-10T10:01:35.082Z,26.78
2023-03-10T10:02:35.214Z,26.79
2023-03-10T10:03:43.012Z,26.85
2023-03-10T10:04:35.023Z,26.85
2023-03-10T10:05:34.824Z,26.90
2023-03-10T10:06:34.783Z,26.96
2023-03-10T10:07:34.736Z,26.94
2023-03-10T10:08:34.698Z,27.03
2023-03-10T10:09:34.657Z,27.07
2023-03-10T10:10:34.755Z,27.10
2023-03-10T10:11:34.574Z,27.11
2023-03-10T10:12:34.724Z,27.15
2023-03-10T10:13:34.471Z,27.18
2023-03-10T10:14:34.458Z,27.21
2023-03-10T10:15:35.674Z,27.25
2023-03-10T10:16:35.079Z,27.28
2023-03-10T10:17:37.301Z,27.31
2023-03-10T10:18:34.727Z,27.35
2023-03-10T10:19:36.854Z,27.35
2023-03-10T10:20:34.126Z,27.38
2023-03-10T10:21:42.372Z,27.41
2023-03-10T10:22:34.018Z,27.45
2023-03-10T10:23:34.691Z,27.44
2023-03-10T10:24:33.922Z,27.48
2023-03-10T10:25:34.849Z,27.48
2023-03-10T10:26:33.813Z,27.48
2023-03-10T10:27:33.763Z,27.49
2023-03-10T10:28:34.212Z,27.48
2023-03-10T10:29:33.673Z,27.51
2023-03-10T10:30:33.822Z,27.52
2023-03-10T10:31:35.930Z,27.53
2023-03-10T10:32:33.551Z,27.56
2023-03-10T10:33:33.721Z,27.60
2023-03-10T10:34:33.427Z,27.59
2023-03-10T10:35:33.393Z,27.60
2023-03-10T10:36:33.699Z,27.63
2023-03-10T10:37:37.211Z,27.63
2023-03-10T10:38:34.269Z,27.60
2023-03-10T10:39:33.205Z,27.52
2023-03-10T10:40:33.157Z,27.45
2023-03-10T10:41:33.199Z,27.34
2023-03-10T10:42:33.090Z,27.31
2023-03-10T10:43:35.307Z,27.20
2023-03-10T10:44:32.989Z,27.08
2023-03-10T10:45:33.196Z,26.91
2023-03-10T10:46:33.058Z,26.86
2023-03-10T10:47:32.881Z,26.75
2023-03-10T10:48:33.217Z,26.65
2023-03-10T10:49:32.782Z,26.63
2023-03-10T10:50:32.741Z,26.55
2023-03-10T10:51:32.706Z,26.49
2023-03-10T10:52:32.675Z,26.44
2023-03-10T10:53:32.731Z,26.42
2023-03-10T10:54:32.605Z,26.32
2023-03-10T10:55:32.587Z,26.16
2023-03-10T10:56:32.740Z,26.05
2023-03-10T10:57:32.535Z,25.96
2023-03-10T10:58:32.530Z,25.72
2023-03-10T10:59:32.488Z,25.72
2023-03-10T11:00:32.450Z,25.65
2023-03-10T11:01:32.761Z,25.56
2023-03-10T11:02:32.549Z,25.59
2023-03-10T11:03:33.369Z,25.52
2023-03-10T11:04:32.344Z,25.53
2023-03-10T11:05:32.885Z,25.45
2023-03-10T11:06:32.707Z,25.39
2023-03-10T11:07:32.273Z,25.35
2023-03-10T11:08:32.206Z,25.32
2023-03-10T11:09:32.545Z,25.37
2023-03-10T11:10:32.135Z,25.30
2023-03-10T11:11:32.554Z,25.28
2023-03-10T11:12:32.073Z,25.25
2023-03-10T11:13:32.714Z,25.25
2023-03-10T11:14:32.214Z,25.22
2023-03-10T11:15:32.082Z,25.15
2023-03-10T11:16:31.959Z,25.20
2023-03-10T11:17:32.213Z,25.24
2023-03-10T11:18:31.962Z,25.18
2023-03-10T11:19:31.870Z,25.24
2023-03-10T11:20:31.845Z,24.90
2023-03-10T11:21:31.820Z,24.62
2023-03-10T11:22:32.264Z,24.72
2023-03-10T11:23:31.789Z,24.90
2023-03-10T11:24:31.737Z,24.96
2023-03-10T11:25:32.192Z,25.00
2023-03-10T11:26:31.729Z,25.07
2023-03-10T11:27:31.646Z,25.17
2023-03-10T11:28:31.729Z,25.24
2023-03-10T11:29:31.906Z,25.28
2023-03-10T11:30:32.572Z,25.34
2023-03-10T11:31:31.659Z,25.41
2023-03-10T11:32:31.749Z,25.48
2023-03-10T11:33:31.456Z,25.53
2023-03-10T11:34:31.488Z,25.55
2023-03-10T11:35:31.825Z,25.64
2023-03-10T11:36:31.355Z,25.68
2023-03-10T11:37:31.325Z,25.70
2023-03-10T11:38:31.279Z,25.77
2023-03-10T11:39:31.763Z,25.80
2023-03-10T11:40:31.216Z,25.86
2023-03-10T11:41:31.222Z,25.89
2023-03-10T11:42:31.127Z,25.94
2023-03-10T11:43:31.082Z,25.99
2023-03-10T11:44:31.075Z,26.01
2023-03-10T11:45:31.005Z,26.03
2023-03-10T11:46:31.226Z,26.07
2023-03-10T11:47:30.912Z,26.08
2023-03-10T11:48:30.874Z,26.11
2023-03-10T11:49:31.307Z,26.13
2023-03-10T11:50:30.836Z,26.17
2023-03-10T11:51:30.739Z,26.18
2023-03-10T11:52:30.701Z,26.21
2023-03-10T11:53:30.721Z,26.21
2023-03-10T11:54:30.782Z,26.26
2023-03-10T11:55:30.741Z,26.27
2023-03-10T11:56:30.521Z,26.27
2023-03-10T11:57:30.477Z,26.28
2023-03-10T11:58:30.436Z,26.30
2023-03-10T11:59:30.748Z,26.31
2023-03-10T12:00:30.746Z,26.32
2023-03-10T12:01:30.302Z,26.32
2023-03-10T12:02:30.287Z,26.34
2023-03-10T12:03:30.414Z,26.35
2023-03-10T12:04:30.269Z,26.35
2023-03-10T12:05:30.180Z,26.35
2023-03-10T12:06:30.129Z,26.37
2023-03-10T12:07:30.237Z,26.37
2023-03-10T12:08:30.001Z,26.38
2023-03-10T12:09:29.972Z,26.38
2023-03-10T12:10:30.305Z,26.38
2023-03-10T12:11:29.874Z,26.38
2023-03-10T12:12:29.837Z,26.38
2023-03-10T12:13:29.792Z,26.35
2023-03-10T12:14:29.751Z,26.38
2023-03-10T12:15:29.732Z,26.39
2023-03-10T12:16:29.801Z,26.39
2023-03-10T12:17:29.619Z,26.39
2023-03-10T12:18:30.085Z,26.41
2023-03-10T12:19:29.827Z,26.42
2023-03-10T12:20:29.533Z,26.42
2023-03-10T12:21:29.520Z,26.44
2023-03-10T12:22:29.453Z,26.42
2023-03-10T12:23:29.379Z,26.45
2023-03-10T12:24:29.749Z,26.49
2023-03-10T12:25:29.288Z,26.48
2023-03-10T12:26:29.270Z,26.48
2023-03-10T12:27:29.219Z,26.54
2023-03-10T12:28:29.176Z,26.52
2023-03-10T12:29:29.249Z,26.52
2023-03-10T12:30:29.089Z,26.54
2023-03-10T12:31:29.148Z,26.55
2023-03-10T12:32:29.078Z,26.56
2023-03-10T12:33:29.005Z,26.55
2023-03-10T12:34:28.919Z,26.55
2023-03-10T12:35:28.910Z,26.55
2023-03-10T12:36:28.886Z,26.56
2023-03-10T12:37:28.794Z,26.55
2023-03-10T12:38:28.799Z,26.58
2023-03-10T12:39:28.716Z,26.58
2023-03-10T12:40:28.680Z,26.60
2023-03-10T12:41:28.639Z,26.58
2023-03-10T12:42:28.633Z,26.59
2023-03-10T12:43:28.552Z,26.63
2023-03-10T12:44:28.514Z,26.63
2023-03-10T12:45:28.476Z,26.60
2023-03-10T12:46:28.917Z,26.60
2023-03-10T12:47:28.378Z,26.62
2023-03-10T12:48:28.346Z,26.62
2023-03-10T12:49:28.310Z,26.62
2023-03-10T12:50:29.262Z,26.63
2023-03-10T12:51:28.229Z,26.62
2023-03-10T12:52:28.187Z,26.62
2023-03-10T12:53:28.146Z,26.62
2023-03-10T12:54:28.121Z,26.63
2023-03-10T12:55:28.111Z,26.63
2023-03-10T12:56:28.009Z,26.60
2023-03-10T12:57:27.965Z,26.62
2023-03-10T12:58:27.927Z,26.63
2023-03-10T12:59:27.871Z,26.63
2023-03-10T13:00:27.818Z,26.62
2023-03-10T13:01:27.909Z,26.60
2023-03-10T13:02:27.728Z,26.65
2023-03-10T13:03:27.767Z,26.65
2023-03-10T13:04:27.667Z,26.63
2023-03-10T13:05:27.630Z,26.65
2023-03-10T13:06:27.752Z,26.63
2023-03-10T13:07:27.551Z,26.65
2023-03-10T13:08:27.512Z,26.65
2023-03-10T13:09:27.448Z,26.63
2023-03-10T13:10:27.431Z,26.65
2023-03-10T13:11:27.755Z,26.66
2023-03-10T13:12:27.756Z,26.66
2023-03-10T13:13:27.294Z,26.68
2023-03-10T13:14:27.253Z,26.69
2023-03-10T13:15:27.240Z,26.66
2023-03-10T13:16:27.240Z,26.65
2023-03-10T13:17:27.119Z,26.68
2023-03-10T13:18:27.072Z,26.66
2023-03-10T13:19:27.042Z,26.68
2023-03-10T13:20:27.002Z,26.66
2023-03-10T13:21:27.262Z,26.69
2023-03-10T13:22:26.920Z,26.72
2023-03-10T13:23:26.881Z,26.72
2023-03-10T13:24:26.838Z,26.75
2023-03-10T13:25:26.818Z,26.73
2023-03-10T13:26:26.798Z,26.76
2023-03-10T13:27:26.717Z,26.75
2023-03-10T13:28:26.687Z,26.76
2023-03-10T13:29:26.629Z,26.76
2023-03-10T13:30:26.692Z,26.76
2023-03-10T13:31:26.843Z,26.78
2023-03-10T13:32:26.561Z,26.78
2023-03-10T13:33:26.482Z,26.76
2023-03-10T13:34:26.445Z,26.78
2023-03-10T13:35:26.428Z,26.80
2023-03-10T13:36:26.384Z,26.79
2023-03-10T13:37:26.768Z,26.80
2023-03-10T13:38:26.327Z,26.76
2023-03-10T13:39:27.755Z,26.78